Weather at Vzletišče Libeliče

Public forecast

Using degrees Celsius for public forecast. Weather courtesy of forecast.io.

Closest aviation weather report (METAR) to Vzletišče Libeliče

Report is more than 6 hours old.

Closest report is Klagenfurt Airport, 25.5 nm (47.2 km) W. Retrieved 2022/09/17 18:50 UTC (18 days ago):

LOWK 171850Z 33003KT 200V010 9999 FEW040 09/08 Q1011 NOSIG

Closest aviation forecast (TAF) to Vzletišče Libeliče

Forecast is more than 12 hours old.

Closest forecast is Klagenfurt Airport, 25.5 nm (47.2 km) W. Retrieved 2022/09/17 18:21 UTC (18 days ago):

TAF LOWK 171715Z 1718/1818 VRB03KT 9999 FEW050 TX16/1815Z TN05/1805Z PROB30 TEMPO 1800/1805 0700 BCFG